createdAt,value
2019-03-26T00:00:06.603Z,82.000732
2019-03-26T00:00:19.656Z,82.000732
2019-03-26T00:00:31.680Z,81.903076
2019-03-26T00:00:43.777Z,81.903076
2019-03-26T00:00:55.836Z,82.000732
2019-03-26T00:01:07.870Z,81.903076
2019-03-26T00:01:19.926Z,81.695557
2019-03-26T00:01:32.969Z,81.384277
2019-03-26T00:01:46.041Z,81.280518
2019-03-26T00:01:58.105Z,81.176758
2019-03-26T00:02:10.177Z,81.488037
2019-03-26T00:02:22.219Z,81.591797
2019-03-26T00:02:34.300Z,81.591797
2019-03-26T00:02:46.336Z,81.591797
2019-03-26T00:02:58.392Z,81.799316
2019-03-26T00:03:11.425Z,81.903076
2019-03-26T00:03:23.509Z,81.799316
2019-03-26T00:03:35.582Z,81.591797
2019-03-26T00:03:47.610Z,81.591797
2019-03-26T00:04:06.631Z,81.591797
2019-03-26T00:04:18.701Z,81.695557
2019-03-26T00:04:30.775Z,81.488037
2019-03-26T00:04:42.826Z,81.384277
2019-03-26T00:04:54.892Z,81.072998
2019-03-26T00:05:06.946Z,80.865479
2019-03-26T00:05:19.995Z,80.657959
2019-03-26T00:05:32.063Z,80.761719
2019-03-26T00:05:44.198Z,80.969238
2019-03-26T00:05:56.230Z,80.969238
2019-03-26T00:06:08.330Z,80.865479
2019-03-26T00:06:20.394Z,80.761719
2019-03-26T00:06:32.440Z,80.657959
2019-03-26T00:06:44.515Z,80.560303
2019-03-26T00:06:56.546Z,80.657959
2019-03-26T00:07:08.614Z,80.761719
2019-03-26T00:07:20.661Z,80.865479
2019-03-26T00:07:32.700Z,80.657959
2019-03-26T00:07:44.798Z,80.456543
2019-03-26T00:07:56.867Z,80.560303
2019-03-26T00:08:08.912Z,80.560303
2019-03-26T00:08:21.969Z,80.657959
2019-03-26T00:08:34.028Z,80.761719
2019-03-26T00:08:46.165Z,80.761719
2019-03-26T00:08:58.194Z,80.657959
2019-03-26T00:09:10.239Z,80.657959
2019-03-26T00:09:22.315Z,80.657959
2019-03-26T00:09:34.394Z,80.761719
2019-03-26T00:09:46.429Z,80.865479
2019-03-26T00:09:58.511Z,80.865479
2019-03-26T00:10:10.587Z,80.865479
2019-03-26T00:10:23.615Z,80.865479
2019-03-26T00:10:35.671Z,80.761719
2019-03-26T00:10:47.727Z,80.865479
2019-03-26T00:10:59.912Z,81.176758
2019-03-26T00:11:12.002Z,81.384277
2019-03-26T00:11:24.018Z,81.591797
2019-03-26T00:11:36.066Z,81.488037
2019-03-26T00:11:48.105Z,81.488037
2019-03-26T00:12:01.150Z,81.384277
2019-03-26T00:12:13.193Z,81.488037
2019-03-26T00:12:26.251Z,81.384277
2019-03-26T00:12:38.318Z,81.280518
2019-03-26T00:12:50.423Z,81.280518
2019-03-26T00:13:02.473Z,81.176758
2019-03-26T00:13:15.517Z,81.176758
2019-03-26T00:13:27.575Z,81.280518
2019-03-26T00:13:39.640Z,81.280518
2019-03-26T00:13:51.728Z,81.176758
2019-03-26T00:14:04.745Z,81.072998
2019-03-26T00:14:16.792Z,81.072998
2019-03-26T00:14:28.853Z,81.280518
2019-03-26T00:14:40.933Z,81.280518
2019-03-26T00:14:52.985Z,81.280518
2019-03-26T00:15:05.063Z,81.280518
2019-03-26T00:15:17.096Z,81.176758
2019-03-26T00:15:29.141Z,81.072998
2019-03-26T00:15:42.171Z,80.865479
2019-03-26T00:15:54.230Z,80.352783
2019-03-26T00:16:06.313Z,80.041504
2019-03-26T00:16:18.375Z,80.041504
2019-03-26T00:16:30.417Z,80.249023
2019-03-26T00:16:42.504Z,80.560303
2019-03-26T00:16:56.356Z,80.657959
2019-03-26T00:17:09.418Z,80.657959
2019-03-26T00:17:21.477Z,80.456543
2019-03-26T00:17:33.533Z,80.249023
2019-03-26T00:17:45.602Z,80.249023
2019-03-26T00:17:57.644Z,80.560303
2019-03-26T00:18:09.691Z,80.761719
2019-03-26T00:18:21.771Z,80.865479
2019-03-26T00:18:34.820Z,81.072998
2019-03-26T00:18:46.884Z,81.280518
2019-03-26T00:18:58.940Z,81.280518
2019-03-26T00:19:10.993Z,81.280518
2019-03-26T00:19:23.128Z,81.280518
2019-03-26T00:19:35.197Z,81.384277
2019-03-26T00:19:47.264Z,81.488037
2019-03-26T00:19:59.298Z,81.488037
2019-03-26T00:20:11.353Z,81.488037
2019-03-26T00:20:23.419Z,81.384277
2019-03-26T00:20:35.461Z,81.280518
2019-03-26T00:20:48.516Z,81.280518
2019-03-26T00:21:00.551Z,81.280518
2019-03-26T00:21:12.620Z,81.280518
2019-03-26T00:21:24.677Z,81.280518
2019-03-26T00:21:36.747Z,81.488037
2019-03-26T00:21:48.790Z,81.384277
2019-03-26T00:22:00.850Z,81.176758
2019-03-26T00:22:12.894Z,81.072998
2019-03-26T00:22:24.980Z,80.969238
2019-03-26T00:22:37.028Z,80.969238
2019-03-26T00:22:49.079Z,80.969238
2019-03-26T00:23:01.125Z,80.969238
2019-03-26T00:23:13.181Z,80.865479
2019-03-26T00:23:25.235Z,80.761719
2019-03-26T00:23:37.296Z,80.761719
2019-03-26T00:23:50.384Z,80.865479
2019-03-26T00:24:02.421Z,80.761719
2019-03-26T00:24:14.476Z,80.865479
2019-03-26T00:24:26.516Z,81.072998
2019-03-26T00:24:38.600Z,81.280518
2019-03-26T00:24:50.632Z,81.280518
2019-03-26T00:25:02.701Z,81.176758
2019-03-26T00:25:14.772Z,80.969238
2019-03-26T00:25:26.842Z,80.761719
2019-03-26T00:25:38.899Z,80.657959
2019-03-26T00:25:50.956Z,80.657959
2019-03-26T00:26:03.030Z,80.657959
2019-03-26T00:26:15.077Z,80.657959
2019-03-26T00:26:27.131Z,80.761719
2019-03-26T00:26:39.181Z,80.761719
2019-03-26T00:26:51.224Z,80.657959
2019-03-26T00:27:03.274Z,80.761719
2019-03-26T00:27:16.320Z,80.969238
2019-03-26T00:27:28.386Z,80.969238
2019-03-26T00:27:40.436Z,80.969238
2019-03-26T00:27:52.599Z,80.969238
2019-03-26T00:28:04.660Z,81.176758
2019-03-26T00:28:16.712Z,81.072998
2019-03-26T00:28:28.753Z,80.865479
2019-03-26T00:28:40.808Z,80.761719
2019-03-26T00:28:52.910Z,80.761719
2019-03-26T00:29:04.972Z,80.657959
2019-03-26T00:29:17.019Z,80.456543
2019-03-26T00:29:29.080Z,80.249023
2019-03-26T00:29:41.148Z,80.145264
2019-03-26T00:29:53.205Z,80.145264
2019-03-26T00:30:05.271Z,80.145264
2019-03-26T00:30:17.397Z,80.249023
2019-03-26T00:30:29.452Z,80.249023
2019-03-26T00:30:42.342Z,79.937744
2019-03-26T00:30:54.380Z,79.730225
2019-03-26T00:31:06.441Z,79.730225
2019-03-26T00:31:18.513Z,79.730225
2019-03-26T00:31:30.573Z,79.730225
2019-03-26T00:31:42.684Z,79.833984
2019-03-26T00:31:54.736Z,79.937744
2019-03-26T00:32:06.775Z,79.937744
2019-03-26T00:32:18.822Z,79.937744
2019-03-26T00:32:31.857Z,79.937744
2019-03-26T00:32:43.909Z,80.041504
2019-03-26T00:32:55.974Z,80.041504
2019-03-26T00:33:08.008Z,80.041504
2019-03-26T00:33:20.068Z,80.145264
2019-03-26T00:33:39.040Z,80.249023
2019-03-26T00:33:51.066Z,80.145264
2019-03-26T00:34:03.136Z,80.041504
2019-03-26T00:34:22.113Z,80.145264
2019-03-26T00:34:34.165Z,80.249023
2019-03-26T00:34:46.222Z,80.456543
2019-03-26T00:34:58.299Z,80.560303
2019-03-26T00:35:10.376Z,80.456543
2019-03-26T00:35:23.417Z,80.145264
2019-03-26T00:35:35.466Z,80.041504
2019-03-26T00:35:47.554Z,79.833984
2019-03-26T00:35:59.623Z,79.730225
2019-03-26T00:36:11.662Z,79.626465
2019-03-26T00:36:23.759Z,79.730225
2019-03-26T00:36:35.821Z,79.626465
2019-03-26T00:36:47.902Z,79.626465
2019-03-26T00:36:59.936Z,79.626465
2019-03-26T00:37:11.979Z,79.626465
2019-03-26T00:37:24.025Z,79.626465
2019-03-26T00:37:36.073Z,79.730225
2019-03-26T00:37:48.139Z,79.730225
2019-03-26T00:38:00.185Z,79.730225
2019-03-26T00:38:12.220Z,79.522705
2019-03-26T00:38:24.271Z,79.418945
2019-03-26T00:38:36.363Z,79.522705
2019-03-26T00:38:48.443Z,79.730225
2019-03-26T00:39:00.513Z,79.833984
2019-03-26T00:39:12.640Z,79.730225
2019-03-26T00:39:24.702Z,79.626465
2019-03-26T00:39:37.761Z,79.418945
2019-03-26T00:39:50.804Z,79.418945
2019-03-26T00:40:02.875Z,79.321289
2019-03-26T00:40:14.916Z,79.217529
2019-03-26T00:40:26.959Z,79.11377
2019-03-26T00:40:40.996Z,79.01001
2019-03-26T00:40:53.073Z,79.11377
2019-03-26T00:41:05.120Z,79.217529
2019-03-26T00:41:17.170Z,79.321289
2019-03-26T00:41:29.624Z,79.321289
2019-03-26T00:41:42.689Z,79.321289
2019-03-26T00:41:54.775Z,79.522705
2019-03-26T00:42:06.859Z,79.522705
2019-03-26T00:42:18.910Z,79.522705
2019-03-26T00:42:30.976Z,79.626465
2019-03-26T00:42:43.037Z,79.730225
2019-03-26T00:42:55.063Z,79.522705
2019-03-26T00:43:07.110Z,79.418945
2019-03-26T00:43:19.168Z,79.321289
2019-03-26T00:43:31.218Z,79.11377
2019-03-26T00:43:43.438Z,79.01001
2019-03-26T00:43:56.583Z,78.90625
2019-03-26T00:44:08.652Z,79.01001
2019-03-26T00:44:21.702Z,79.01001
2019-03-26T00:44:34.754Z,79.01001
2019-03-26T00:44:46.841Z,79.01001
2019-03-26T00:44:58.868Z,79.217529
2019-03-26T00:45:10.913Z,79.321289
2019-03-26T00:45:23.945Z,79.321289
2019-03-26T00:45:35.987Z,79.321289
2019-03-26T00:45:48.097Z,79.321289
2019-03-26T00:46:00.165Z,79.418945
2019-03-26T00:46:12.189Z,79.522705
2019-03-26T00:46:24.231Z,79.626465
2019-03-26T00:46:37.277Z,79.418945
2019-03-26T00:46:49.361Z,79.321289
2019-03-26T00:47:01.445Z,79.217529
2019-03-26T00:47:13.485Z,79.01001
2019-03-26T00:47:26.534Z,79.01001
2019-03-26T00:47:38.592Z,79.11377
2019-03-26T00:47:51.625Z,79.11377
2019-03-26T00:48:03.766Z,79.11377
2019-03-26T00:48:15.826Z,79.217529
2019-03-26T00:48:27.943Z,79.522705
2019-03-26T00:48:40.002Z,79.522705
2019-03-26T00:48:52.058Z,79.321289
2019-03-26T00:49:04.119Z,79.321289
2019-03-26T00:49:16.158Z,79.11377
2019-03-26T00:49:28.236Z,79.01001
2019-03-26T00:49:40.255Z,79.01001
2019-03-26T00:49:52.301Z,78.90625
2019-03-26T00:50:04.361Z,79.01001
2019-03-26T00:50:16.432Z,79.01001
2019-03-26T00:50:28.467Z,79.01001
2019-03-26T00:50:40.558Z,79.01001
2019-03-26T00:50:52.627Z,79.11377
2019-03-26T00:51:04.721Z,79.321289
2019-03-26T00:51:16.812Z,79.418945
2019-03-26T00:51:28.886Z,79.418945
2019-03-26T00:51:40.955Z,79.522705
2019-03-26T00:51:54.014Z,79.730225
2019-03-26T00:52:07.081Z,79.833984
2019-03-26T00:52:19.145Z,79.730225
2019-03-26T00:52:31.178Z,79.522705
2019-03-26T00:52:44.226Z,79.522705
2019-03-26T00:52:56.271Z,79.626465
2019-03-26T00:53:09.306Z,79.522705
2019-03-26T00:53:21.424Z,79.418945
2019-03-26T00:53:34.395Z,79.321289
2019-03-26T00:53:46.441Z,79.522705
2019-03-26T00:53:58.488Z,79.833984
2019-03-26T00:54:10.586Z,79.730225
2019-03-26T00:54:22.680Z,79.522705
2019-03-26T00:54:34.731Z,79.418945
2019-03-26T00:54:46.769Z,79.418945
2019-03-26T00:54:59.813Z,79.626465
2019-03-26T00:55:22.259Z,79.833984
2019-03-26T00:55:30.895Z,80.145264
2019-03-26T00:55:43.956Z,80.145264
2019-03-26T00:55:56.164Z,80.145264
2019-03-26T00:56:08.220Z,79.937744
2019-03-26T00:56:21.287Z,79.626465
2019-03-26T00:56:33.361Z,79.321289
2019-03-26T00:56:46.430Z,79.01001
2019-03-26T00:56:58.585Z,78.80249
2019-03-26T00:57:10.635Z,78.594971
2019-03-26T00:57:22.701Z,78.594971
2019-03-26T00:57:34.757Z,78.491211
2019-03-26T00:57:46.845Z,78.491211
2019-03-26T00:58:01.458Z,78.594971
2019-03-26T00:58:11.955Z,78.80249
2019-03-26T00:58:24.011Z,78.80249
2019-03-26T00:58:36.088Z,78.80249
2019-03-26T00:58:48.113Z,78.594971
2019-03-26T00:59:00.174Z,78.491211
2019-03-26T00:59:12.232Z,78.491211
2019-03-26T00:59:24.274Z,78.90625
2019-03-26T00:59:36.328Z,79.321289
2019-03-26T00:59:48.381Z,79.522705
2019-03-26T01:00:00.485Z,79.833984
2019-03-26T01:00:12.512Z,79.937744
2019-03-26T01:00:24.588Z,80.041504
2019-03-26T01:00:36.651Z,80.041504
2019-03-26T01:00:48.721Z,79.626465
2019-03-26T01:01:00.806Z,79.217529
2019-03-26T01:01:12.916Z,79.01001
2019-03-26T01:01:24.962Z,79.01001
2019-03-26T01:01:38.034Z,79.217529
2019-03-26T01:01:50.086Z,79.217529
2019-03-26T01:02:03.158Z,79.11377
2019-03-26T01:02:16.209Z,78.90625
2019-03-26T01:02:28.293Z,78.69873
2019-03-26T01:02:40.401Z,78.491211
2019-03-26T01:02:52.472Z,78.387451
2019-03-26T01:03:04.531Z,78.491211
2019-03-26T01:03:17.593Z,78.491211
2019-03-26T01:03:30.632Z,78.594971
2019-03-26T01:03:42.693Z,78.594971
2019-03-26T01:03:55.729Z,78.594971
2019-03-26T01:04:09.764Z,78.69873
2019-03-26T01:04:32.457Z,78.69873
2019-03-26T01:04:40.800Z,78.80249
2019-03-26T01:04:52.846Z,78.80249
2019-03-26T01:05:04.911Z,78.90625
2019-03-26T01:05:16.976Z,78.80249
2019-03-26T01:05:29.054Z,78.80249
2019-03-26T01:05:41.077Z,78.69873
2019-03-26T01:05:53.170Z,78.69873
2019-03-26T01:06:06.202Z,78.631592
2019-03-26T01:06:18.271Z,78.69873
2019-03-26T01:06:30.311Z,78.80249
2019-03-26T01:06:43.366Z,79.01001
2019-03-26T01:06:56.463Z,79.11377
2019-03-26T01:07:08.508Z,79.11377
2019-03-26T01:07:20.549Z,79.01001
2019-03-26T01:07:32.611Z,79.321289
2019-03-26T01:07:44.706Z,79.217529
2019-03-26T01:07:56.765Z,79.01001
2019-03-26T01:08:08.829Z,78.80249
2019-03-26T01:08:20.885Z,78.69873
2019-03-26T01:08:32.938Z,78.594971
2019-03-26T01:08:44.990Z,78.594971
2019-03-26T01:08:57.083Z,78.90625
2019-03-26T01:09:09.145Z,79.11377
2019-03-26T01:09:21.199Z,79.321289
2019-03-26T01:09:33.248Z,79.321289
2019-03-26T01:09:45.316Z,79.418945
2019-03-26T01:09:57.376Z,79.522705
2019-03-26T01:10:09.447Z,79.730225
2019-03-26T01:10:21.492Z,79.522705
2019-03-26T01:10:33.541Z,79.321289
2019-03-26T01:10:45.621Z,79.11377
2019-03-26T01:10:57.693Z,79.01001
2019-03-26T01:11:09.743Z,78.90625
2019-03-26T01:11:21.796Z,78.80249
2019-03-26T01:11:33.848Z,78.80249
2019-03-26T01:11:45.920Z,78.69873
2019-03-26T01:11:58.032Z,78.594971
2019-03-26T01:12:10.077Z,78.69873
2019-03-26T01:12:23.133Z,78.69873
2019-03-26T01:12:36.185Z,78.491211
2019-03-26T01:12:48.254Z,78.283691
2019-03-26T01:13:00.306Z,78.179932
2019-03-26T01:13:12.360Z,78.179932
2019-03-26T01:13:25.442Z,78.179932
2019-03-26T01:13:37.483Z,78.283691
2019-03-26T01:13:50.533Z,78.387451
2019-03-26T01:14:02.568Z,78.491211
2019-03-26T01:14:14.640Z,78.594971
2019-03-26T01:14:26.691Z,78.594971
2019-03-26T01:14:38.748Z,78.594971
2019-03-26T01:14:50.808Z,78.491211
2019-03-26T01:15:02.877Z,78.387451
2019-03-26T01:15:15.997Z,78.283691
2019-03-26T01:15:28.080Z,78.283691
2019-03-26T01:15:40.143Z,78.283691
2019-03-26T01:15:52.282Z,78.179932
2019-03-26T01:16:04.317Z,78.179932
2019-03-26T01:16:16.359Z,78.283691
2019-03-26T01:16:28.433Z,78.387451
2019-03-26T01:16:40.539Z,78.594971
2019-03-26T01:16:53.625Z,78.69873
2019-03-26T01:17:05.668Z,78.594971
2019-03-26T01:17:17.730Z,78.283691
2019-03-26T01:17:29.785Z,77.978516
2019-03-26T01:17:41.844Z,77.770996
2019-03-26T01:17:53.891Z,77.496338
2019-03-26T01:18:05.945Z,77.148438
2019-03-26T01:18:18.056Z,76.977539
2019-03-26T01:18:31.084Z,77.252197
2019-03-26T01:18:43.147Z,77.703857
2019-03-26T01:18:55.198Z,77.770996
2019-03-26T01:19:07.316Z,77.667236
2019-03-26T01:19:19.413Z,77.600098
2019-03-26T01:19:31.514Z,77.600098
2019-03-26T01:19:44.570Z,77.563477
2019-03-26T01:19:56.628Z,77.600098
2019-03-26T01:20:08.661Z,77.703857
2019-03-26T01:20:20.718Z,77.807617
2019-03-26T01:20:34.759Z,77.807617
2019-03-26T01:20:46.851Z,77.807617
2019-03-26T01:20:58.931Z,77.807617
2019-03-26T01:21:10.974Z,77.905273
2019-03-26T01:21:23.031Z,78.009033
2019-03-26T01:21:35.086Z,78.009033
2019-03-26T01:21:47.110Z,77.807617
2019-03-26T01:21:59.144Z,77.703857
2019-03-26T01:22:11.194Z,77.703857
2019-03-26T01:22:23.266Z,77.807617
2019-03-26T01:22:35.339Z,77.905273
2019-03-26T01:22:47.379Z,77.905273
2019-03-26T01:22:59.448Z,77.807617
2019-03-26T01:23:11.564Z,77.807617
2019-03-26T01:23:24.634Z,77.905273
2019-03-26T01:23:36.678Z,77.905273
2019-03-26T01:23:49.715Z,77.807617
2019-03-26T01:24:01.766Z,77.600098
2019-03-26T01:24:14.808Z,77.703857
2019-03-26T01:24:26.861Z,77.807617
2019-03-26T01:24:39.911Z,77.905273
2019-03-26T01:24:51.971Z,78.009033
2019-03-26T01:25:04.051Z,78.009033
2019-03-26T01:25:16.108Z,77.905273
2019-03-26T01:25:28.146Z,77.807617
2019-03-26T01:25:41.168Z,77.807617
2019-03-26T01:25:53.253Z,77.905273
2019-03-26T01:26:05.339Z,77.905273
2019-03-26T01:26:17.392Z,78.009033
2019-03-26T01:26:29.426Z,78.112793
2019-03-26T01:26:43.382Z,78.009033
2019-03-26T01:26:55.437Z,77.807617
2019-03-26T01:27:07.469Z,77.392578
2019-03-26T01:27:20.514Z,77.288818
2019-03-26T01:27:35.554Z,77.288818
2019-03-26T01:27:47.611Z,77.185059
2019-03-26T01:27:59.653Z,77.081299
2019-03-26T01:28:12.687Z,76.977539
2019-03-26T01:28:24.737Z,76.873779
2019-03-26T01:28:36.763Z,76.873779
2019-03-26T01:28:48.840Z,76.977539
2019-03-26T01:29:00.889Z,76.977539
2019-03-26T01:29:12.922Z,77.081299
2019-03-26T01:29:24.979Z,77.185059
2019-03-26T01:29:37.037Z,77.185059
2019-03-26T01:29:49.067Z,77.185059
2019-03-26T01:30:02.115Z,77.081299
2019-03-26T01:30:14.147Z,77.288818
2019-03-26T01:30:26.190Z,77.496338
2019-03-26T01:30:38.264Z,77.600098
2019-03-26T01:30:50.297Z,77.600098
2019-03-26T01:31:03.440Z,77.392578
2019-03-26T01:31:15.535Z,77.392578
2019-03-26T01:31:27.568Z,77.288818
2019-03-26T01:31:39.611Z,77.185059
2019-03-26T01:31:51.665Z,77.185059
2019-03-26T01:32:03.751Z,77.288818
2019-03-26T01:32:16.782Z,77.807617
2019-03-26T01:32:28.826Z,78.112793
2019-03-26T01:32:40.891Z,78.216553
2019-03-26T01:32:52.964Z,78.424072
2019-03-26T01:33:05.132Z,78.631592
2019-03-26T01:33:17.210Z,78.735352
2019-03-26T01:33:29.285Z,78.631592
2019-03-26T01:33:41.322Z,78.527832
2019-03-26T01:33:53.377Z,78.320312
2019-03-26T01:34:05.434Z,78.320312
2019-03-26T01:34:17.504Z,78.320312
2019-03-26T01:34:29.537Z,78.320312
2019-03-26T01:34:47.571Z,78.216553
2019-03-26T01:34:59.645Z,78.216553
2019-03-26T01:35:11.681Z,78.320312
2019-03-26T01:35:23.746Z,78.320312
2019-03-26T01:35:35.790Z,78.216553
2019-03-26T01:35:47.833Z,78.112793
2019-03-26T01:36:00.009Z,78.009033
2019-03-26T01:36:12.065Z,77.905273
2019-03-26T01:36:24.127Z,77.807617
2019-03-26T01:36:36.174Z,77.807617
2019-03-26T01:36:48.285Z,77.807617
2019-03-26T01:37:00.319Z,77.703857
2019-03-26T01:37:12.359Z,77.496338
2019-03-26T01:37:24.432Z,77.392578
2019-03-26T01:37:37.470Z,77.288818
2019-03-26T01:37:49.530Z,77.288818
2019-03-26T01:38:01.587Z,77.288818
2019-03-26T01:38:13.681Z,77.288818
2019-03-26T01:38:25.781Z,77.703857
2019-03-26T01:38:37.902Z,78.009033
2019-03-26T01:38:49.877Z,78.112793
2019-03-26T01:39:03.001Z,78.112793
2019-03-26T01:39:16.044Z,78.009033
2019-03-26T01:39:28.092Z,77.905273
2019-03-26T01:39:40.137Z,77.600098
2019-03-26T01:39:52.192Z,77.496338
2019-03-26T01:40:04.257Z,77.392578
2019-03-26T01:40:16.300Z,77.496338
2019-03-26T01:40:28.407Z,77.703857
2019-03-26T01:40:40.434Z,77.807617
2019-03-26T01:40:52.484Z,78.112793
2019-03-26T01:41:05.537Z,78.216553
2019-03-26T01:41:17.593Z,78.112793
2019-03-26T01:41:30.431Z,78.009033
2019-03-26T01:41:42.529Z,77.905273
2019-03-26T01:41:54.574Z,77.807617
2019-03-26T01:42:06.616Z,77.807617
2019-03-26T01:42:18.676Z,77.703857
2019-03-26T01:42:30.722Z,77.703857
2019-03-26T01:42:42.761Z,77.600098
2019-03-26T01:42:54.807Z,77.288818
2019-03-26T01:43:06.876Z,77.081299
2019-03-26T01:43:18.943Z,76.873779
2019-03-26T01:43:31.984Z,76.77002
2019-03-26T01:43:45.091Z,76.77002
2019-03-26T01:43:58.148Z,76.77002
2019-03-26T01:44:10.203Z,76.977539
2019-03-26T01:44:22.236Z,76.977539
2019-03-26T01:44:34.294Z,76.977539
2019-03-26T01:44:46.337Z,77.081299
2019-03-26T01:44:59.370Z,77.081299
2019-03-26T01:45:11.488Z,77.081299
2019-03-26T01:45:23.533Z,77.288818
2019-03-26T01:45:35.603Z,77.392578
2019-03-26T01:45:47.637Z,77.392578
2019-03-26T01:45:59.710Z,77.496338
2019-03-26T01:46:11.764Z,77.600098
2019-03-26T01:46:23.835Z,77.600098
2019-03-26T01:46:35.869Z,77.496338
2019-03-26T01:46:47.950Z,77.496338
2019-03-26T01:47:00.018Z,77.392578
2019-03-26T01:47:12.079Z,77.392578
2019-03-26T01:47:24.172Z,77.288818
2019-03-26T01:47:36.243Z,77.081299
2019-03-26T01:47:48.319Z,76.977539
2019-03-26T01:48:00.384Z,77.081299
2019-03-26T01:48:12.430Z,77.288818
2019-03-26T01:48:24.477Z,77.496338
2019-03-26T01:48:36.528Z,77.288818
2019-03-26T01:48:49.567Z,77.081299
2019-03-26T01:49:01.627Z,76.977539
2019-03-26T01:49:13.672Z,76.873779
2019-03-26T01:49:25.713Z,76.77002
2019-03-26T01:49:37.773Z,76.77002
2019-03-26T01:49:49.827Z,76.977539
2019-03-26T01:50:01.892Z,77.392578
2019-03-26T01:50:14.970Z,77.600098
2019-03-26T01:50:27.032Z,77.600098
2019-03-26T01:50:39.091Z,78.009033
2019-03-26T01:50:51.146Z,78.320312
2019-03-26T01:51:04.224Z,78.424072
2019-03-26T01:51:16.299Z,78.527832
2019-03-26T01:51:28.328Z,78.527832
2019-03-26T01:51:40.426Z,78.527832
2019-03-26T01:51:53.370Z,78.216553
2019-03-26T01:52:05.403Z,78.112793
2019-03-26T01:52:17.471Z,78.009033
2019-03-26T01:52:30.508Z,77.905273
2019-03-26T01:52:42.570Z,77.807617
2019-03-26T01:52:54.626Z,77.703857
2019-03-26T01:53:06.686Z,77.532959
2019-03-26T01:53:20.376Z,77.496338
2019-03-26T01:53:31.782Z,77.288818
2019-03-26T01:53:43.827Z,77.185059
2019-03-26T01:53:55.898Z,77.22168
2019-03-26T01:54:07.964Z,77.288818
2019-03-26T01:54:20.008Z,77.288818
2019-03-26T01:54:32.065Z,77.288818
2019-03-26T01:54:45.184Z,77.429199
2019-03-26T01:54:57.191Z,77.325439
2019-03-26T01:55:09.247Z,77.22168
2019-03-26T01:55:22.265Z,77.081299
2019-03-26T01:55:34.328Z,77.081299
2019-03-26T01:55:46.381Z,77.185059
2019-03-26T01:55:58.520Z,77.22168
2019-03-26T01:56:10.574Z,77.081299
2019-03-26T01:56:22.685Z,77.01416
2019-03-26T01:56:34.697Z,76.9104
2019-03-26T01:56:46.759Z,77.01416
2019-03-26T01:56:58.810Z,77.01416
2019-03-26T01:57:10.857Z,76.977539
2019-03-26T01:57:24.892Z,77.01416
2019-03-26T01:57:37.955Z,77.01416
2019-03-26T01:57:50.030Z,77.01416
2019-03-26T01:58:03.065Z,77.11792
2019-03-26T01:58:16.198Z,77.22168
2019-03-26T01:58:28.256Z,77.11792
2019-03-26T01:58:41.284Z,77.01416
2019-03-26T01:58:53.338Z,77.11792
2019-03-26T01:59:05.384Z,77.22168
2019-03-26T01:59:17.430Z,77.325439
2019-03-26T01:59:29.466Z,77.392578
2019-03-26T01:59:41.505Z,77.429199
2019-03-26T01:59:53.567Z,77.429199
2019-03-26T02:00:05.636Z,77.636719
2019-03-26T02:00:17.703Z,77.838135
2019-03-26T02:00:29.763Z,77.941895
2019-03-26T02:00:41.797Z,77.703857
2019-03-26T02:00:53.834Z,77.429199
2019-03-26T02:01:05.903Z,77.325439
2019-03-26T02:01:17.958Z,77.22168
2019-03-26T02:01:30.013Z,77.325439
2019-03-26T02:01:44.054Z,77.11792
2019-03-26T02:01:56.103Z,77.01416
2019-03-26T02:02:08.133Z,76.9104
2019-03-26T02:02:20.197Z,76.806641
2019-03-26T02:02:33.248Z,76.702881
2019-03-26T02:02:45.293Z,76.702881
2019-03-26T02:02:58.335Z,76.806641
2019-03-26T02:03:10.390Z,76.806641
2019-03-26T02:03:22.480Z,76.9104
2019-03-26T02:03:34.513Z,76.806641
2019-03-26T02:03:46.564Z,76.702881
2019-03-26T02:03:58.625Z,76.702881
2019-03-26T02:04:10.686Z,76.9104
2019-03-26T02:04:23.722Z,76.9104
2019-03-26T02:04:35.793Z,76.806641
2019-03-26T02:04:59.584Z,76.9104
2019-03-26T02:05:07.822Z,77.11792
2019-03-26T02:05:19.866Z,77.01416
2019-03-26T02:05:31.912Z,76.9104
2019-03-26T02:05:44.937Z,76.806641
2019-03-26T02:05:56.977Z,76.702881
2019-03-26T02:06:09.048Z,76.495361
2019-03-26T02:06:22.097Z,76.495361
2019-03-26T02:06:34.146Z,76.702881
2019-03-26T02:06:47.205Z,77.01416
2019-03-26T02:07:00.263Z,77.22168
2019-03-26T02:07:12.303Z,77.429199
2019-03-26T02:07:24.356Z,77.532959
2019-03-26T02:07:38.768Z,77.429199
2019-03-26T02:07:49.444Z,77.429199
2019-03-26T02:08:01.508Z,77.325439
2019-03-26T02:08:14.555Z,77.22168
2019-03-26T02:08:26.615Z,77.081299
2019-03-26T02:08:38.670Z,77.01416
2019-03-26T02:08:51.708Z,77.01416
2019-03-26T02:09:03.761Z,76.873779
2019-03-26T02:09:15.811Z,76.806641
2019-03-26T02:09:27.859Z,76.806641
2019-03-26T02:09:40.908Z,76.77002
2019-03-26T02:09:54.008Z,76.806641
2019-03-26T02:10:06.046Z,76.77002
2019-03-26T02:10:18.086Z,76.806641
2019-03-26T02:10:30.131Z,76.9104
2019-03-26T02:10:42.185Z,76.873779
2019-03-26T02:10:54.249Z,76.9104
2019-03-26T02:11:06.414Z,76.806641
2019-03-26T02:11:18.463Z,76.806641
2019-03-26T02:11:30.520Z,76.77002
2019-03-26T02:11:42.586Z,76.77002
2019-03-26T02:11:54.672Z,76.5625
2019-03-26T02:12:06.728Z,76.45874
2019-03-26T02:12:18.780Z,76.361084
2019-03-26T02:12:30.830Z,76.257324
2019-03-26T02:12:42.956Z,76.257324
2019-03-26T02:12:56.024Z,76.257324
2019-03-26T02:13:08.086Z,76.153564
2019-03-26T02:13:20.154Z,76.361084
2019-03-26T02:13:32.200Z,76.5625
2019-03-26T02:13:45.254Z,76.873779
2019-03-26T02:13:57.336Z,76.873779
2019-03-26T02:14:09.379Z,76.977539
2019-03-26T02:14:21.491Z,77.081299
2019-03-26T02:14:33.543Z,77.081299
2019-03-26T02:14:45.659Z,77.081299
2019-03-26T02:14:57.736Z,76.873779
2019-03-26T02:15:09.771Z,76.66626
2019-03-26T02:15:21.811Z,76.45874
2019-03-26T02:15:33.860Z,76.361084
2019-03-26T02:15:45.915Z,76.66626
2019-03-26T02:15:57.974Z,76.977539
2019-03-26T02:16:10.044Z,77.081299
2019-03-26T02:16:22.084Z,77.081299
2019-03-26T02:16:35.131Z,77.081299
2019-03-26T02:16:47.189Z,77.081299
2019-03-26T02:16:59.294Z,76.977539
2019-03-26T02:17:11.341Z,77.081299
2019-03-26T02:17:23.395Z,77.081299
2019-03-26T02:17:35.461Z,77.185059
2019-03-26T02:17:47.533Z,77.185059
2019-03-26T02:18:00.587Z,77.185059
2019-03-26T02:18:12.660Z,77.081299
2019-03-26T02:18:24.736Z,76.977539
2019-03-26T02:18:36.798Z,76.873779
2019-03-26T02:18:48.854Z,76.77002
2019-03-26T02:19:00.897Z,76.77002
2019-03-26T02:19:13.993Z,76.66626
2019-03-26T02:19:26.038Z,76.77002
2019-03-26T02:19:38.121Z,76.77002
2019-03-26T02:19:50.207Z,76.873779
2019-03-26T02:20:02.263Z,76.873779
2019-03-26T02:20:14.309Z,76.873779
2019-03-26T02:20:26.350Z,76.977539
2019-03-26T02:20:38.432Z,76.977539
2019-03-26T02:20:51.476Z,77.081299
2019-03-26T02:21:03.540Z,77.288818